sensor_id;sensor_type;location;lat;lon;timestamp;temperature;humidity
8664;DHT22;4369;47.842;13.096;2022-07-17T00:02:11;16.40;99.90
8664;DHT22;4369;47.842;13.096;2022-07-17T00:04:39;16.30;99.90
8664;DHT22;4369;47.842;13.096;2022-07-17T00:07:06;16.30;99.90
8664;DHT22;4369;47.842;13.096;2022-07-17T00:09:33;16.30;99.90
8664;DHT22;4369;47.842;13.096;2022-07-17T00:12:00;16.30;99.90
8664;DHT22;4369;47.842;13.096;2022-07-17T00:14:27;16.20;99.90
8664;DHT22;4369;47.842;13.096;2022-07-17T00:16:54;16.10;99.90
8664;DHT22;4369;47.842;13.096;2022-07-17T00:19:23;16.10;99.90
8664;DHT22;4369;47.842;13.096;2022-07-17T00:21:51;16.10;99.90
8664;DHT22;4369;47.842;13.096;2022-07-17T00:24:18;16.00;99.90
8664;DHT22;4369;47.842;13.096;2022-07-17T00:26:46;16.00;99.90
8664;DHT22;4369;47.842;13.096;2022-07-17T00:29:13;16.00;99.90
8664;DHT22;4369;47.842;13.096;2022-07-17T00:31:41;16.00;99.90
8664;DHT22;4369;47.842;13.096;2022-07-17T00:34:07;16.00;99.90
8664;DHT22;4369;47.842;13.096;2022-07-17T00:36:34;15.90;99.90
8664;DHT22;4369;47.842;13.096;2022-07-17T00:39:03;15.80;99.90
8664;DHT22;4369;47.842;13.096;2022-07-17T00:41:30;15.80;99.90
8664;DHT22;4369;47.842;13.096;2022-07-17T00:44:03;15.70;99.90
8664;DHT22;4369;47.842;13.096;2022-07-17T00:46:30;15.70;99.90
8664;DHT22;4369;47.842;13.096;2022-07-17T00:48:57;15.60;99.90
8664;DHT22;4369;47.842;13.096;2022-07-17T00:51:24;15.60;99.90
8664;DHT22;4369;47.842;13.096;2022-07-17T00:53:52;15.50;99.90
8664;DHT22;4369;47.842;13.096;2022-07-17T00:56:21;15.50;99.90
8664;DHT22;4369;47.842;13.096;2022-07-17T00:58:50;15.60;99.90
8664;DHT22;4369;47.842;13.096;2022-07-17T01:01:17;15.60;99.90
8664;DHT22;4369;47.842;13.096;2022-07-17T01:03:44;15.50;99.90
8664;DHT22;4369;47.842;13.096;2022-07-17T01:06:11;15.50;99.90
8664;DHT22;4369;47.842;13.096;2022-07-17T01:08:38;15.50;99.90
8664;DHT22;4369;47.842;13.096;2022-07-17T01:11:06;15.30;99.90
8664;DHT22;4369;47.842;13.096;2022-07-17T01:13:36;15.30;99.90
8664;DHT22;4369;47.842;13.096;2022-07-17T01:16:03;15.30;99.90
8664;DHT22;4369;47.842;13.096;2022-07-17T01:18:30;15.20;99.90
8664;DHT22;4369;47.842;13.096;2022-07-17T01:21:03;15.20;99.90
8664;DHT22;4369;47.842;13.096;2022-07-17T01:23:30;15.20;99.90
8664;DHT22;4369;47.842;13.096;2022-07-17T01:25:57;15.10;99.90
8664;DHT22;4369;47.842;13.096;2022-07-17T01:28:24;15.10;99.90
8664;DHT22;4369;47.842;13.096;2022-07-17T01:30:52;15.10;99.90
8664;DHT22;4369;47.842;13.096;2022-07-17T01:33:19;15.10;99.90
8664;DHT22;4369;47.842;13.096;2022-07-17T01:35:46;15.10;99.90
8664;DHT22;4369;47.842;13.096;2022-07-17T01:38:15;14.90;99.90
8664;DHT22;4369;47.842;13.096;2022-07-17T01:40:42;14.90;99.90
8664;DHT22;4369;47.842;13.096;2022-07-17T01:43:09;14.90;99.90
8664;DHT22;4369;47.842;13.096;2022-07-17T01:45:35;14.80;99.90
8664;DHT22;4369;47.842;13.096;2022-07-17T01:48:03;14.80;99.90
8664;DHT22;4369;47.842;13.096;2022-07-17T01:50:30;14.90;99.90
8664;DHT22;4369;47.842;13.096;2022-07-17T01:52:57;14.80;99.90
8664;DHT22;4369;47.842;13.096;2022-07-17T01:55:25;14.80;99.90
8664;DHT22;4369;47.842;13.096;2022-07-17T01:57:52;14.80;99.90
8664;DHT22;4369;47.842;13.096;2022-07-17T02:00:19;14.80;99.90
8664;DHT22;4369;47.842;13.096;2022-07-17T02:02:48;14.80;99.90
8664;DHT22;4369;47.842;13.096;2022-07-17T02:05:15;14.70;99.90
8664;DHT22;4369;47.842;13.096;2022-07-17T02:07:42;14.70;99.90
8664;DHT22;4369;47.842;13.096;2022-07-17T02:10:10;14.60;99.90
8664;DHT22;4369;47.842;13.096;2022-07-17T02:12:41;14.60;99.90
8664;DHT22;4369;47.842;13.096;2022-07-17T02:15:08;14.70;99.90
8664;DHT22;4369;47.842;13.096;2022-07-17T02:17:35;14.70;99.90
8664;DHT22;4369;47.842;13.096;2022-07-17T02:20:03;14.80;99.90
8664;DHT22;4369;47.842;13.096;2022-07-17T02:22:30;14.80;99.90
8664;DHT22;4369;47.842;13.096;2022-07-17T02:24:57;14.70;99.90
8664;DHT22;4369;47.842;13.096;2022-07-17T02:27:23;14.60;99.90
8664;DHT22;4369;47.842;13.096;2022-07-17T02:29:52;14.50;99.90
8664;DHT22;4369;47.842;13.096;2022-07-17T02:32:19;14.50;99.90
8664;DHT22;4369;47.842;13.096;2022-07-17T02:34:45;14.30;99.90
8664;DHT22;4369;47.842;13.096;2022-07-17T02:37:12;14.30;99.90
8664;DHT22;4369;47.842;13.096;2022-07-17T02:39:39;14.30;99.90
8664;DHT22;4369;47.842;13.096;2022-07-17T02:42:18;14.30;99.90
8664;DHT22;4369;47.842;13.096;2022-07-17T02:44:46;14.30;99.90
8664;DHT22;4369;47.842;13.096;2022-07-17T02:47:16;14.40;99.90
8664;DHT22;4369;47.842;13.096;2022-07-17T02:49:47;14.30;99.90
8664;DHT22;4369;47.842;13.096;2022-07-17T02:52:13;14.30;99.90
8664;DHT22;4369;47.842;13.096;2022-07-17T02:54:40;14.20;99.90
8664;DHT22;4369;47.842;13.096;2022-07-17T02:57:07;14.20;99.90
8664;DHT22;4369;47.842;13.096;2022-07-17T02:59:34;14.30;99.90
8664;DHT22;4369;47.842;13.096;2022-07-17T03:02:01;14.20;99.90
8664;DHT22;4369;47.842;13.096;2022-07-17T03:04:30;14.20;99.90
8664;DHT22;4369;47.842;13.096;2022-07-17T03:06:57;14.20;99.90
8664;DHT22;4369;47.842;13.096;2022-07-17T03:09:24;14.10;99.90
8664;DHT22;4369;47.842;13.096;2022-07-17T03:11:51;14.10;99.90
8664;DHT22;4369;47.842;13.096;2022-07-17T03:14:18;14.00;99.90
8664;DHT22;4369;47.842;13.096;2022-07-17T03:16:44;14.00;99.90
8664;DHT22;4369;47.842;13.096;2022-07-17T03:19:11;14.00;99.90
8664;DHT22;4369;47.842;13.096;2022-07-17T03:21:39;13.90;99.90
8664;DHT22;4369;47.842;13.096;2022-07-17T03:24:06;14.00;99.90
8664;DHT22;4369;47.842;13.096;2022-07-17T03:26:33;14.00;99.90
8664;DHT22;4369;47.842;13.096;2022-07-17T03:29:00;14.00;99.90
8664;DHT22;4369;47.842;13.096;2022-07-17T03:31:27;13.90;99.90
8664;DHT22;4369;47.842;13.096;2022-07-17T03:33:54;13.90;99.90
8664;DHT22;4369;47.842;13.096;2022-07-17T03:36:20;13.90;99.90
8664;DHT22;4369;47.842;13.096;2022-07-17T03:38:49;13.90;99.90
8664;DHT22;4369;47.842;13.096;2022-07-17T03:41:16;14.00;99.90
8664;DHT22;4369;47.842;13.096;2022-07-17T03:43:42;13.90;99.90
8664;DHT22;4369;47.842;13.096;2022-07-17T03:46:09;13.90;99.90
8664;DHT22;4369;47.842;13.096;2022-07-17T03:48:36;13.90;99.90
8664;DHT22;4369;47.842;13.096;2022-07-17T03:51:04;13.80;99.90
8664;DHT22;4369;47.842;13.096;2022-07-17T03:53:32;13.90;99.90
8664;DHT22;4369;47.842;13.096;2022-07-17T03:56:00;13.90;99.90
8664;DHT22;4369;47.842;13.096;2022-07-17T03:58:27;13.90;99.90
8664;DHT22;4369;47.842;13.096;2022-07-17T04:00:55;14.00;99.90
8664;DHT22;4369;47.842;13.096;2022-07-17T04:03:21;14.00;99.90
8664;DHT22;4369;47.842;13.096;2022-07-17T04:05:49;14.00;99.90
8664;DHT22;4369;47.842;13.096;2022-07-17T04:08:16;14.10;99.90
8664;DHT22;4369;47.842;13.096;2022-07-17T04:10:44;14.10;99.90
8664;DHT22;4369;47.842;13.096;2022-07-17T04:13:12;14.10;99.90
8664;DHT22;4369;47.842;13.096;2022-07-17T04:15:39;14.20;99.90
8664;DHT22;4369;47.842;13.096;2022-07-17T04:18:23;14.20;99.90
8664;DHT22;4369;47.842;13.096;2022-07-17T04:20:51;14.30;99.90
8664;DHT22;4369;47.842;13.096;2022-07-17T04:23:19;14.20;99.90
8664;DHT22;4369;47.842;13.096;2022-07-17T04:25:46;14.30;99.90
8664;DHT22;4369;47.842;13.096;2022-07-17T04:28:14;14.30;99.90
8664;DHT22;4369;47.842;13.096;2022-07-17T04:30:41;14.30;99.90
8664;DHT22;4369;47.842;13.096;2022-07-17T04:33:09;14.30;99.90
8664;DHT22;4369;47.842;13.096;2022-07-17T04:35:36;14.30;99.90
8664;DHT22;4369;47.842;13.096;2022-07-17T04:38:03;14.40;99.90
8664;DHT22;4369;47.842;13.096;2022-07-17T04:40:31;14.50;99.90
8664;DHT22;4369;47.842;13.096;2022-07-17T04:42:58;14.40;99.90
8664;DHT22;4369;47.842;13.096;2022-07-17T04:45:27;14.50;99.90
8664;DHT22;4369;47.842;13.096;2022-07-17T04:47:54;14.60;99.90
8664;DHT22;4369;47.842;13.096;2022-07-17T04:50:22;14.60;99.90
8664;DHT22;4369;47.842;13.096;2022-07-17T04:52:49;14.70;99.90
8664;DHT22;4369;47.842;13.096;2022-07-17T04:55:16;14.80;99.90
8664;DHT22;4369;47.842;13.096;2022-07-17T04:57:43;15.00;99.90
8664;DHT22;4369;47.842;13.096;2022-07-17T05:00:12;15.10;99.90
8664;DHT22;4369;47.842;13.096;2022-07-17T05:02:42;15.20;99.90
8664;DHT22;4369;47.842;13.096;2022-07-17T05:05:09;15.20;99.90
8664;DHT22;4369;47.842;13.096;2022-07-17T05:07:36;15.30;99.90
8664;DHT22;4369;47.842;13.096;2022-07-17T05:10:03;15.40;99.90
8664;DHT22;4369;47.842;13.096;2022-07-17T05:12:30;15.40;99.90
8664;DHT22;4369;47.842;13.096;2022-07-17T05:14:57;15.50;99.90
8664;DHT22;4369;47.842;13.096;2022-07-17T05:17:24;15.60;99.90
8664;DHT22;4369;47.842;13.096;2022-07-17T05:19:52;15.70;99.90
8664;DHT22;4369;47.842;13.096;2022-07-17T05:22:19;15.80;99.90
8664;DHT22;4369;47.842;13.096;2022-07-17T05:24:46;15.80;99.90
8664;DHT22;4369;47.842;13.096;2022-07-17T05:27:13;16.00;99.90
8664;DHT22;4369;47.842;13.096;2022-07-17T05:29:40;16.10;99.90
8664;DHT22;4369;47.842;13.096;2022-07-17T05:32:07;16.20;99.90
8664;DHT22;4369;47.842;13.096;2022-07-17T05:34:34;16.20;99.90
8664;DHT22;4369;47.842;13.096;2022-07-17T05:37:02;16.40;99.90
8664;DHT22;4369;47.842;13.096;2022-07-17T05:39:29;16.50;99.90
8664;DHT22;4369;47.842;13.096;2022-07-17T05:41:55;16.60;99.90
8664;DHT22;4369;47.842;13.096;2022-07-17T05:44:22;16.70;99.90
8664;DHT22;4369;47.842;13.096;2022-07-17T05:46:49;16.90;99.90
8664;DHT22;4369;47.842;13.096;2022-07-17T05:49:16;17.00;99.90
8664;DHT22;4369;47.842;13.096;2022-07-17T05:51:43;16.90;99.90
8664;DHT22;4369;47.842;13.096;2022-07-17T05:54:11;16.90;99.90
8664;DHT22;4369;47.842;13.096;2022-07-17T05:56:38;17.00;99.90
8664;DHT22;4369;47.842;13.096;2022-07-17T05:59:05;17.10;99.90
8664;DHT22;4369;47.842;13.096;2022-07-17T06:01:32;17.20;99.90
8664;DHT22;4369;47.842;13.096;2022-07-17T06:03:59;17.30;99.90
8664;DHT22;4369;47.842;13.096;2022-07-17T06:06:25;17.30;99.90
8664;DHT22;4369;47.842;13.096;2022-07-17T06:08:52;17.40;99.90
8664;DHT22;4369;47.842;13.096;2022-07-17T06:11:21;17.50;99.90
8664;DHT22;4369;47.842;13.096;2022-07-17T06:13:47;17.60;99.90
8664;DHT22;4369;47.842;13.096;2022-07-17T06:16:14;17.60;99.90
8664;DHT22;4369;47.842;13.096;2022-07-17T06:18:41;17.60;99.90
8664;DHT22;4369;47.842;13.096;2022-07-17T06:21:08;17.60;99.90
8664;DHT22;4369;47.842;13.096;2022-07-17T06:23:35;17.80;99.90
8664;DHT22;4369;47.842;13.096;2022-07-17T06:26:02;17.80;99.90
8664;DHT22;4369;47.842;13.096;2022-07-17T06:28:30;17.90;99.90
8664;DHT22;4369;47.842;13.096;2022-07-17T06:30:58;18.00;99.90
8664;DHT22;4369;47.842;13.096;2022-07-17T06:33:25;18.00;99.90
8664;DHT22;4369;47.842;13.096;2022-07-17T06:35:51;18.10;99.90
8664;DHT22;4369;47.842;13.096;2022-07-17T06:38:18;18.10;99.90
8664;DHT22;4369;47.842;13.096;2022-07-17T06:40:45;18.30;99.90
8664;DHT22;4369;47.842;13.096;2022-07-17T06:43:15;18.40;99.90
8664;DHT22;4369;47.842;13.096;2022-07-17T06:45:43;18.40;99.90
8664;DHT22;4369;47.842;13.096;2022-07-17T06:48:10;18.50;99.90
8664;DHT22;4369;47.842;13.096;2022-07-17T06:50:37;18.50;99.90
8664;DHT22;4369;47.842;13.096;2022-07-17T06:53:04;18.60;99.90
8664;DHT22;4369;47.842;13.096;2022-07-17T06:55:31;18.70;99.90
8664;DHT22;4369;47.842;13.096;2022-07-17T06:57:58;18.80;99.90
8664;DHT22;4369;47.842;13.096;2022-07-17T07:00:25;18.90;99.90
8664;DHT22;4369;47.842;13.096;2022-07-17T07:02:53;18.90;99.90
8664;DHT22;4369;47.842;13.096;2022-07-17T07:05:20;19.00;99.90
8664;DHT22;4369;47.842;13.096;2022-07-17T07:07:47;19.10;99.90
8664;DHT22;4369;47.842;13.096;2022-07-17T07:10:14;19.10;99.90
8664;DHT22;4369;47.842;13.096;2022-07-17T07:12:41;19.20;99.90
8664;DHT22;4369;47.842;13.096;2022-07-17T07:15:09;19.20;99.90
8664;DHT22;4369;47.842;13.096;2022-07-17T07:17:36;19.30;99.90
8664;DHT22;4369;47.842;13.096;2022-07-17T07:20:05;19.40;99.90
8664;DHT22;4369;47.842;13.096;2022-07-17T07:22:33;19.60;99.90
8664;DHT22;4369;47.842;13.096;2022-07-17T07:25:00;19.60;99.90
8664;DHT22;4369;47.842;13.096;2022-07-17T07:27:27;19.60;99.90
8664;DHT22;4369;47.842;13.096;2022-07-17T07:29:54;19.60;99.90
8664;DHT22;4369;47.842;13.096;2022-07-17T07:32:21;19.80;99.90
8664;DHT22;4369;47.842;13.096;2022-07-17T07:34:48;20.00;99.90
8664;DHT22;4369;47.842;13.096;2022-07-17T07:37:16;20.10;99.90
8664;DHT22;4369;47.842;13.096;2022-07-17T07:39:43;20.10;99.90
8664;DHT22;4369;47.842;13.096;2022-07-17T07:42:10;20.20;99.90
8664;DHT22;4369;47.842;13.096;2022-07-17T07:44:37;20.30;99.90
8664;DHT22;4369;47.842;13.096;2022-07-17T07:47:04;20.40;99.90
8664;DHT22;4369;47.842;13.096;2022-07-17T07:49:31;20.50;99.90
8664;DHT22;4369;47.842;13.096;2022-07-17T07:51:58;20.60;99.90
8664;DHT22;4369;47.842;13.096;2022-07-17T07:54:26;20.70;99.90
8664;DHT22;4369;47.842;13.096;2022-07-17T07:56:53;20.70;99.90
8664;DHT22;4369;47.842;13.096;2022-07-17T07:59:20;20.70;99.90
8664;DHT22;4369;47.842;13.096;2022-07-17T08:01:47;20.80;99.90
8664;DHT22;4369;47.842;13.096;2022-07-17T08:04:14;20.90;99.90
8664;DHT22;4369;47.842;13.096;2022-07-17T08:06:42;21.00;99.90
8664;DHT22;4369;47.842;13.096;2022-07-17T08:09:08;21.10;99.90
8664;DHT22;4369;47.842;13.096;2022-07-17T08:11:37;21.10;99.90
8664;DHT22;4369;47.842;13.096;2022-07-17T08:14:04;21.20;99.90
8664;DHT22;4369;47.842;13.096;2022-07-17T08:16:30;21.30;99.90
8664;DHT22;4369;47.842;13.096;2022-07-17T08:18:57;21.40;99.90
8664;DHT22;4369;47.842;13.096;2022-07-17T08:21:24;21.50;99.90
8664;DHT22;4369;47.842;13.096;2022-07-17T08:23:51;21.60;99.90
8664;DHT22;4369;47.842;13.096;2022-07-17T08:26:18;21.80;99.90
8664;DHT22;4369;47.842;13.096;2022-07-17T08:28:46;21.90;95.10
8664;DHT22;4369;47.842;13.096;2022-07-17T08:31:13;22.10;86.50
8664;DHT22;4369;47.842;13.096;2022-07-17T08:33:40;22.20;87.80
8664;DHT22;4369;47.842;13.096;2022-07-17T08:36:07;22.20;91.90
8664;DHT22;4369;47.842;13.096;2022-07-17T08:38:34;22.40;90.10
8664;DHT22;4369;47.842;13.096;2022-07-17T08:41:01;22.50;91.90
8664;DHT22;4369;47.842;13.096;2022-07-17T08:43:30;22.60;95.20
8664;DHT22;4369;47.842;13.096;2022-07-17T08:45:59;22.70;94.20
8664;DHT22;4369;47.842;13.096;2022-07-17T08:48:26;22.80;92.80
8664;DHT22;4369;47.842;13.096;2022-07-17T08:50:54;22.90;93.60
8664;DHT22;4369;47.842;13.096;2022-07-17T08:53:22;22.90;91.60
8664;DHT22;4369;47.842;13.096;2022-07-17T08:55:49;23.00;90.10
8664;DHT22;4369;47.842;13.096;2022-07-17T08:58:17;23.10;92.70
8664;DHT22;4369;47.842;13.096;2022-07-17T09:00:44;23.20;90.40
8664;DHT22;4369;47.842;13.096;2022-07-17T09:03:14;23.20;90.90
8664;DHT22;4369;47.842;13.096;2022-07-17T09:05:42;23.30;90.40
8664;DHT22;4369;47.842;13.096;2022-07-17T09:08:16;23.30;83.30
8664;DHT22;4369;47.842;13.096;2022-07-17T09:10:45;23.50;81.00
8664;DHT22;4369;47.842;13.096;2022-07-17T09:13:20;23.60;80.70
8664;DHT22;4369;47.842;13.096;2022-07-17T09:15:50;23.60;83.40
8664;DHT22;4369;47.842;13.096;2022-07-17T09:18:19;23.70;83.00
8664;DHT22;4369;47.842;13.096;2022-07-17T09:20:47;23.80;77.90
8664;DHT22;4369;47.842;13.096;2022-07-17T09:23:15;23.90;75.80
8664;DHT22;4369;47.842;13.096;2022-07-17T09:25:44;23.90;73.90
8664;DHT22;4369;47.842;13.096;2022-07-17T09:28:13;24.00;70.30
8664;DHT22;4369;47.842;13.096;2022-07-17T09:30:43;24.10;70.40
8664;DHT22;4369;47.842;13.096;2022-07-17T09:33:13;24.10;64.30
8664;DHT22;4369;47.842;13.096;2022-07-17T09:35:53;24.20;65.90
8664;DHT22;4369;47.842;13.096;2022-07-17T09:38:29;24.20;63.90
8664;DHT22;4369;47.842;13.096;2022-07-17T09:41:04;24.30;66.00
8664;DHT22;4369;47.842;13.096;2022-07-17T09:43:43;24.40;67.40
8664;DHT22;4369;47.842;13.096;2022-07-17T09:46:13;24.50;65.60
8664;DHT22;4369;47.842;13.096;2022-07-17T09:48:43;24.70;67.10
8664;DHT22;4369;47.842;13.096;2022-07-17T09:51:16;24.80;74.80
8664;DHT22;4369;47.842;13.096;2022-07-17T09:53:44;24.70;71.70
8664;DHT22;4369;47.842;13.096;2022-07-17T09:56:15;24.80;66.20
8664;DHT22;4369;47.842;13.096;2022-07-17T09:58:44;24.90;68.70
8664;DHT22;4369;47.842;13.096;2022-07-17T10:01:14;25.10;72.20
8664;DHT22;4369;47.842;13.096;2022-07-17T10:03:41;25.10;64.70
8664;DHT22;4369;47.842;13.096;2022-07-17T10:06:09;25.00;64.90
8664;DHT22;4369;47.842;13.096;2022-07-17T10:08:38;25.00;69.10
8664;DHT22;4369;47.842;13.096;2022-07-17T10:11:06;25.10;66.70
8664;DHT22;4369;47.842;13.096;2022-07-17T10:13:35;25.20;69.10
8664;DHT22;4369;47.842;13.096;2022-07-17T10:16:02;25.10;70.10
8664;DHT22;4369;47.842;13.096;2022-07-17T10:18:37;25.20;68.30
8664;DHT22;4369;47.842;13.096;2022-07-17T10:21:16;25.30;72.40
8664;DHT22;4369;47.842;13.096;2022-07-17T10:24:06;25.50;60.40
8664;DHT22;4369;47.842;13.096;2022-07-17T10:26:38;25.40;64.60
8664;DHT22;4369;47.842;13.096;2022-07-17T10:29:08;25.60;63.40
8664;DHT22;4369;47.842;13.096;2022-07-17T10:31:35;25.80;68.00
8664;DHT22;4369;47.842;13.096;2022-07-17T10:34:03;25.90;69.00
8664;DHT22;4369;47.842;13.096;2022-07-17T10:36:33;26.10;61.60
8664;DHT22;4369;47.842;13.096;2022-07-17T10:39:12;26.20;66.80
8664;DHT22;4369;47.842;13.096;2022-07-17T10:41:39;26.20;62.80
8664;DHT22;4369;47.842;13.096;2022-07-17T10:44:06;26.40;66.80
8664;DHT22;4369;47.842;13.096;2022-07-17T10:46:33;26.40;65.10
8664;DHT22;4369;47.842;13.096;2022-07-17T10:49:01;26.50;67.40
8664;DHT22;4369;47.842;13.096;2022-07-17T10:51:29;26.40;63.20
8664;DHT22;4369;47.842;13.096;2022-07-17T10:53:57;26.30;69.60
8664;DHT22;4369;47.842;13.096;2022-07-17T10:56:26;26.30;67.00
8664;DHT22;4369;47.842;13.096;2022-07-17T10:59:00;26.60;61.40
8664;DHT22;4369;47.842;13.096;2022-07-17T11:01:28;26.80;59.30
8664;DHT22;4369;47.842;13.096;2022-07-17T11:03:56;27.00;60.80
8664;DHT22;4369;47.842;13.096;2022-07-17T11:06:25;26.90;63.40
8664;DHT22;4369;47.842;13.096;2022-07-17T11:08:54;27.00;68.20
8664;DHT22;4369;47.842;13.096;2022-07-17T11:11:35;27.00;60.90
8664;DHT22;4369;47.842;13.096;2022-07-17T11:14:13;27.20;70.90
8664;DHT22;4369;47.842;13.096;2022-07-17T11:16:44;27.30;59.00
8664;DHT22;4369;47.842;13.096;2022-07-17T11:19:12;27.40;57.10
8664;DHT22;4369;47.842;13.096;2022-07-17T11:21:46;27.10;54.70
8664;DHT22;4369;47.842;13.096;2022-07-17T11:24:14;26.90;60.10
8664;DHT22;4369;47.842;13.096;2022-07-17T11:26:43;26.90;65.60
8664;DHT22;4369;47.842;13.096;2022-07-17T11:29:11;27.00;59.60
8664;DHT22;4369;47.842;13.096;2022-07-17T11:31:37;27.00;67.60
8664;DHT22;4369;47.842;13.096;2022-07-17T11:34:07;27.00;64.80
8664;DHT22;4369;47.842;13.096;2022-07-17T11:36:36;27.20;66.40
8664;DHT22;4369;47.842;13.096;2022-07-17T11:39:06;27.40;62.00
8664;DHT22;4369;47.842;13.096;2022-07-17T11:41:37;27.40;61.90
8664;DHT22;4369;47.842;13.096;2022-07-17T11:44:08;27.60;63.10
8664;DHT22;4369;47.842;13.096;2022-07-17T11:46:37;27.80;59.50
8664;DHT22;4369;47.842;13.096;2022-07-17T11:49:06;27.80;55.60
8664;DHT22;4369;47.842;13.096;2022-07-17T11:51:38;27.90;54.90
8664;DHT22;4369;47.842;13.096;2022-07-17T11:54:07;28.00;53.70
8664;DHT22;4369;47.842;13.096;2022-07-17T11:56:35;27.90;55.40
8664;DHT22;4369;47.842;13.096;2022-07-17T11:59:02;28.10;53.50
8664;DHT22;4369;47.842;13.096;2022-07-17T12:01:38;28.20;54.70
8664;DHT22;4369;47.842;13.096;2022-07-17T12:04:07;28.30;58.70
8664;DHT22;4369;47.842;13.096;2022-07-17T12:06:35;28.50;59.90
8664;DHT22;4369;47.842;13.096;2022-07-17T12:09:03;28.50;58.80
8664;DHT22;4369;47.842;13.096;2022-07-17T12:11:30;28.60;58.90
8664;DHT22;4369;47.842;13.096;2022-07-17T12:14:03;28.70;57.30
8664;DHT22;4369;47.842;13.096;2022-07-17T12:16:34;28.90;55.90
8664;DHT22;4369;47.842;13.096;2022-07-17T12:19:05;28.90;54.10
8664;DHT22;4369;47.842;13.096;2022-07-17T12:21:45;29.00;54.50
8664;DHT22;4369;47.842;13.096;2022-07-17T12:24:19;29.00;51.90
8664;DHT22;4369;47.842;13.096;2022-07-17T12:26:46;28.90;52.30
8664;DHT22;4369;47.842;13.096;2022-07-17T12:29:13;28.90;54.20
8664;DHT22;4369;47.842;13.096;2022-07-17T12:31:42;29.00;59.00
8664;DHT22;4369;47.842;13.096;2022-07-17T12:34:09;29.10;55.20
8664;DHT22;4369;47.842;13.096;2022-07-17T12:36:35;29.10;56.90
8664;DHT22;4369;47.842;13.096;2022-07-17T12:39:03;29.10;57.00
8664;DHT22;4369;47.842;13.096;2022-07-17T12:41:30;29.00;50.00
8664;DHT22;4369;47.842;13.096;2022-07-17T12:43:57;28.60;50.40
8664;DHT22;4369;47.842;13.096;2022-07-17T12:46:23;28.70;56.80
8664;DHT22;4369;47.842;13.096;2022-07-17T12:48:52;28.80;55.20
8664;DHT22;4369;47.842;13.096;2022-07-17T12:51:19;28.80;52.80
8664;DHT22;4369;47.842;13.096;2022-07-17T12:53:45;29.20;55.80
8664;DHT22;4369;47.842;13.096;2022-07-17T12:56:12;29.40;52.30
8664;DHT22;4369;47.842;13.096;2022-07-17T12:58:39;29.60;52.70
8664;DHT22;4369;47.842;13.096;2022-07-17T13:01:07;29.80;51.70
8664;DHT22;4369;47.842;13.096;2022-07-17T13:03:34;29.70;53.50
8664;DHT22;4369;47.842;13.096;2022-07-17T13:06:02;29.90;55.80
8664;DHT22;4369;47.842;13.096;2022-07-17T13:08:30;30.20;50.20
8664;DHT22;4369;47.842;13.096;2022-07-17T13:10:58;30.30;53.60
8664;DHT22;4369;47.842;13.096;2022-07-17T13:13:24;30.50;49.90
8664;DHT22;4369;47.842;13.096;2022-07-17T13:15:51;30.70;47.60
8664;DHT22;4369;47.842;13.096;2022-07-17T13:18:18;30.90;49.50
8664;DHT22;4369;47.842;13.096;2022-07-17T13:20:45;31.00;48.30
8664;DHT22;4369;47.842;13.096;2022-07-17T13:23:14;31.00;50.80
8664;DHT22;4369;47.842;13.096;2022-07-17T13:25:41;31.30;48.90
8664;DHT22;4369;47.842;13.096;2022-07-17T13:28:10;31.70;52.10
8664;DHT22;4369;47.842;13.096;2022-07-17T13:30:37;31.60;44.40
8664;DHT22;4369;47.842;13.096;2022-07-17T13:33:04;31.80;50.20
8664;DHT22;4369;47.842;13.096;2022-07-17T13:35:31;32.20;47.40
8664;DHT22;4369;47.842;13.096;2022-07-17T13:37:58;32.50;47.50
8664;DHT22;4369;47.842;13.096;2022-07-17T13:40:28;33.00;46.60
8664;DHT22;4369;47.842;13.096;2022-07-17T13:42:55;33.40;43.30
8664;DHT22;4369;47.842;13.096;2022-07-17T13:45:22;33.40;43.60
8664;DHT22;4369;47.842;13.096;2022-07-17T13:47:49;33.20;42.60
8664;DHT22;4369;47.842;13.096;2022-07-17T13:50:16;33.20;41.20
8664;DHT22;4369;47.842;13.096;2022-07-17T13:52:43;33.90;40.20
8664;DHT22;4369;47.842;13.096;2022-07-17T13:55:10;34.50;40.30
8664;DHT22;4369;47.842;13.096;2022-07-17T13:57:39;35.00;43.40
8664;DHT22;4369;47.842;13.096;2022-07-17T14:00:07;35.70;36.10
8664;DHT22;4369;47.842;13.096;2022-07-17T14:02:34;37.70;37.60
8664;DHT22;4369;47.842;13.096;2022-07-17T14:05:01;39.50;34.90
8664;DHT22;4369;47.842;13.096;2022-07-17T14:07:28;40.80;34.30
8664;DHT22;4369;47.842;13.096;2022-07-17T14:09:55;42.70;32.60
8664;DHT22;4369;47.842;13.096;2022-07-17T14:12:22;44.90;29.70
8664;DHT22;4369;47.842;13.096;2022-07-17T14:14:50;45.50;26.80
8664;DHT22;4369;47.842;13.096;2022-07-17T14:17:17;46.10;28.60
8664;DHT22;4369;47.842;13.096;2022-07-17T14:19:44;47.50;26.70
8664;DHT22;4369;47.842;13.096;2022-07-17T14:22:11;48.50;25.20
8664;DHT22;4369;47.842;13.096;2022-07-17T14:24:38;49.10;26.40
8664;DHT22;4369;47.842;13.096;2022-07-17T14:27:05;48.20;24.60
8664;DHT22;4369;47.842;13.096;2022-07-17T14:29:32;48.40;25.10
8664;DHT22;4369;47.842;13.096;2022-07-17T14:32:00;48.50;24.70
8664;DHT22;4369;47.842;13.096;2022-07-17T14:34:27;48.20;25.20
8664;DHT22;4369;47.842;13.096;2022-07-17T14:36:54;47.60;25.30
8664;DHT22;4369;47.842;13.096;2022-07-17T14:39:21;47.90;24.80
8664;DHT22;4369;47.842;13.096;2022-07-17T14:41:48;47.50;25.00
8664;DHT22;4369;47.842;13.096;2022-07-17T14:44:15;46.30;24.90
8664;DHT22;4369;47.842;13.096;2022-07-17T14:46:42;46.00;26.10
8664;DHT22;4369;47.842;13.096;2022-07-17T14:49:10;45.20;24.90
8664;DHT22;4369;47.842;13.096;2022-07-17T14:51:37;45.80;25.10
8664;DHT22;4369;47.842;13.096;2022-07-17T14:54:04;45.40;25.80
8664;DHT22;4369;47.842;13.096;2022-07-17T14:56:31;45.10;26.50
8664;DHT22;4369;47.842;13.096;2022-07-17T14:58:58;43.70;27.40
8664;DHT22;4369;47.842;13.096;2022-07-17T15:01:25;43.00;26.60
8664;DHT22;4369;47.842;13.096;2022-07-17T15:03:52;42.40;28.10
8664;DHT22;4369;47.842;13.096;2022-07-17T15:06:20;42.30;27.90
8664;DHT22;4369;47.842;13.096;2022-07-17T15:08:47;42.00;25.70
8664;DHT22;4369;47.842;13.096;2022-07-17T15:11:14;42.40;27.50
8664;DHT22;4369;47.842;13.096;2022-07-17T15:13:42;42.20;28.20
8664;DHT22;4369;47.842;13.096;2022-07-17T15:16:09;41.50;28.50
8664;DHT22;4369;47.842;13.096;2022-07-17T15:18:36;40.90;26.70
8664;DHT22;4369;47.842;13.096;2022-07-17T15:21:03;41.60;26.30
8664;DHT22;4369;47.842;13.096;2022-07-17T15:23:31;41.00;27.40
8664;DHT22;4369;47.842;13.096;2022-07-17T15:25:58;40.40;28.20
8664;DHT22;4369;47.842;13.096;2022-07-17T15:28:25;39.80;28.30
8664;DHT22;4369;47.842;13.096;2022-07-17T15:30:52;39.80;28.10
8664;DHT22;4369;47.842;13.096;2022-07-17T15:33:19;38.90;28.70
8664;DHT22;4369;47.842;13.096;2022-07-17T15:35:46;38.60;28.80
8664;DHT22;4369;47.842;13.096;2022-07-17T15:38:14;37.90;27.10
8664;DHT22;4369;47.842;13.096;2022-07-17T15:40:42;36.60;27.40
8664;DHT22;4369;47.842;13.096;2022-07-17T15:43:09;35.50;31.40
8664;DHT22;4369;47.842;13.096;2022-07-17T15:45:36;34.70;31.30
8664;DHT22;4369;47.842;13.096;2022-07-17T15:48:03;34.50;34.10
8664;DHT22;4369;47.842;13.096;2022-07-17T15:50:30;34.50;31.00